Time;durP1;ratioP1;P1;durP2;ratioP2;P2;SDS_P1;SDS_P2;PMS_P1;PMS_P2;Temp;Humidity;BMP_temperature;BMP_pressure;BME280_temperature;BME280_humidity;BME280_pressure;Samples;Min_cycle;Max_cycle;Signal;HPM_P1;HPM_P2
2023/08/18 00:01:29;;;;;;;0.10;0.10;;;22.10;99.90;;;;;;5004180;28;21771;-82
2023/08/18 00:03:55;;;;;;;0.10;0.10;;;22.00;99.90;;;;;;5005460;28;20183;-82
2023/08/18 00:06:21;;;;;;;0.10;0.10;;;22.00;99.90;;;;;;5005606;28;20281;-82
2023/08/18 00:08:46;;;;;;;0.10;0.10;;;22.00;99.90;;;;;;5019678;28;20198;-82
2023/08/18 00:11:12;;;;;;;0.10;0.10;;;22.00;99.90;;;;;;5004789;28;20214;-82
2023/08/18 00:13:38;;;;;;;0.10;0.10;;;22.00;99.90;;;;;;5002881;28;20187;-82
2023/08/18 00:16:03;;;;;;;0.10;0.10;;;22.00;99.90;;;;;;5003160;28;20858;-82
2023/08/18 00:18:29;;;;;;;0.10;0.10;;;21.90;99.90;;;;;;5003531;28;20232;-82
2023/08/18 00:20:54;;;;;;;0.10;0.10;;;21.90;99.90;;;;;;5003683;28;20290;-82
2023/08/18 00:23:20;;;;;;;0.10;0.10;;;21.80;99.90;;;;;;5005642;28;20260;-82
2023/08/18 00:25:45;;;;;;;0.10;0.10;;;21.80;99.90;;;;;;5004203;28;20252;-82
2023/08/18 00:28:11;;;;;;;0.10;0.10;;;21.70;99.90;;;;;;5003732;28;20329;-82
2023/08/18 00:30:37;;;;;;;0.10;0.10;;;21.80;99.90;;;;;;5002777;28;20207;-82
2023/08/18 00:33:02;;;;;;;0.10;0.10;;;21.70;99.90;;;;;;5005173;28;20183;-82
2023/08/18 00:35:28;;;;;;;0.10;0.10;;;21.80;99.90;;;;;;5003150;28;20187;-82
2023/08/18 00:37:53;;;;;;;0.10;0.10;;;21.80;99.90;;;;;;5002776;28;20306;-82
2023/08/18 00:40:19;;;;;;;0.10;0.10;;;21.90;99.90;;;;;;5003499;28;20657;-82
2023/08/18 00:42:45;;;;;;;0.10;0.10;;;21.90;99.90;;;;;;5004101;28;20187;-82
2023/08/18 00:45:10;;;;;;;0.10;0.10;;;21.80;99.90;;;;;;5003693;28;20206;-82
2023/08/18 00:47:37;;;;;;;0.10;0.10;;;21.70;99.90;;;;;;5003829;28;20202;-82
2023/08/18 00:50:04;;;;;;;0.10;0.10;;;21.60;99.90;;;;;;5019515;28;20233;-82
2023/08/18 00:52:30;;;;;;;0.10;0.10;;;21.60;99.90;;;;;;5019555;28;20282;-82
2023/08/18 00:54:55;;;;;;;0.10;0.10;;;21.60;99.90;;;;;;5020695;28;20190;-81
2023/08/18 00:57:21;;;;;;;0.10;0.10;;;21.50;99.90;;;;;;5003099;28;20183;-82
2023/08/18 00:59:49;;;;;;;0.10;0.10;;;21.50;99.90;;;;;;5003000;28;20211;-82
2023/08/18 01:02:18;;;;;;;0.10;0.10;;;21.50;99.90;;;;;;5004483;28;20406;-82
2023/08/18 01:04:45;;;;;;;0.10;0.10;;;21.60;99.90;;;;;;5003342;28;20189;-81
2023/08/18 01:07:11;;;;;;;0.10;0.10;;;21.60;99.90;;;;;;5004714;28;20191;-82
2023/08/18 01:09:36;;;;;;;0.10;0.10;;;21.60;99.90;;;;;;5003036;28;20738;-82
2023/08/18 01:12:10;;;;;;;0.10;0.10;;;21.60;99.90;;;;;;5005355;28;20561;-82
2023/08/18 01:15:09;;;;;;;0.10;0.10;;;21.60;99.90;;;;;;5004506;28;20183;-82
2023/08/18 01:17:55;;;;;;;0.10;0.10;;;21.50;99.90;;;;;;5019597;28;20277;-82
2023/08/18 01:20:23;;;;;;;0.10;0.10;;;21.50;99.90;;;;;;5003105;28;20210;-82
2023/08/18 01:22:58;;;;;;;0.10;0.10;;;21.50;99.90;;;;;;5003283;28;20187;-82
2023/08/18 01:25:25;;;;;;;0.10;0.10;;;21.50;99.90;;;;;;5006857;28;20197;-82
2023/08/18 01:27:52;;;;;;;0.10;0.10;;;21.40;99.90;;;;;;5008329;28;20747;-82
2023/08/18 01:30:18;;;;;;;0.10;0.10;;;21.30;99.90;;;;;;5005588;28;20229;-82
2023/08/18 01:32:57;;;;;;;0.10;0.10;;;21.20;99.90;;;;;;5008332;28;20439;-82
2023/08/18 01:35:27;;;;;;;0.10;0.10;;;21.30;99.90;;;;;;5023435;28;20186;-82
2023/08/18 01:37:54;;;;;;;0.10;0.10;;;21.30;99.90;;;;;;5007100;28;20219;-82
2023/08/18 01:40:23;;;;;;;0.10;0.10;;;21.40;99.90;;;;;;5008041;28;20215;-82
2023/08/18 01:42:51;;;;;;;0.10;0.10;;;21.40;99.90;;;;;;5022693;28;20191;-82
2023/08/18 01:45:16;;;;;;;0.10;0.10;;;21.40;99.90;;;;;;5005985;28;20257;-82
2023/08/18 01:47:42;;;;;;;0.10;0.10;;;21.40;99.90;;;;;;5006313;28;20194;-82
2023/08/18 01:50:08;;;;;;;0.10;0.10;;;21.30;99.90;;;;;;5004708;28;20218;-82
2023/08/18 01:52:34;;;;;;;0.10;0.10;;;21.30;99.90;;;;;;5006267;28;20187;-82
2023/08/18 01:54:59;;;;;;;0.10;0.10;;;21.30;99.90;;;;;;5007951;28;20202;-82
2023/08/18 01:57:25;;;;;;;0.10;0.10;;;21.30;99.90;;;;;;5005988;28;20635;-82
2023/08/18 01:59:50;;;;;;;0.10;0.10;;;21.30;99.90;;;;;;5006895;28;20210;-82
2023/08/18 02:02:16;;;;;;;0.10;0.10;;;21.40;99.90;;;;;;5005355;28;20187;-82
2023/08/18 02:04:41;;;;;;;0.10;0.10;;;21.40;99.90;;;;;;5005020;28;20202;-82
2023/08/18 02:07:07;;;;;;;0.10;0.10;;;21.40;99.90;;;;;;5005542;28;21185;-82
2023/08/18 02:09:32;;;;;;;0.10;0.10;;;21.50;99.90;;;;;;5004740;28;20739;-82
2023/08/18 02:11:58;;;;;;;0.10;0.10;;;21.50;99.90;;;;;;5007697;28;20198;-82
2023/08/18 02:14:24;;;;;;;0.10;0.10;;;21.50;99.90;;;;;;5005736;28;20185;-82
2023/08/18 02:16:49;;;;;;;0.10;0.10;;;21.50;99.90;;;;;;5006897;28;20301;-82
2023/08/18 02:19:15;;;;;;;0.10;0.10;;;21.50;99.90;;;;;;5022432;28;20209;-82
2023/08/18 02:21:40;;;;;;;0.10;0.10;;;21.40;99.90;;;;;;5005589;28;20183;-82
2023/08/18 02:24:06;;;;;;;0.10;0.10;;;21.30;99.90;;;;;;5006709;28;20237;-82
2023/08/18 02:26:32;;;;;;;0.10;0.10;;;21.20;99.90;;;;;;5005524;28;20186;-82
2023/08/18 02:28:57;;;;;;;0.10;0.10;;;21.20;99.90;;;;;;5005719;28;20195;-82
2023/08/18 02:31:23;;;;;;;0.10;0.10;;;21.10;99.90;;;;;;5004708;28;20210;-82
2023/08/18 02:33:48;;;;;;;0.10;0.10;;;21.20;99.90;;;;;;5007298;28;20226;-82
2023/08/18 02:36:14;;;;;;;0.10;0.10;;;21.20;99.90;;;;;;5003394;28;20388;-82
2023/08/18 02:38:39;;;;;;;0.10;0.10;;;21.20;99.90;;;;;;5005793;28;20183;-82
2023/08/18 02:41:05;;;;;;;0.10;0.10;;;21.20;99.90;;;;;;5005410;28;20194;-82
2023/08/18 02:43:30;;;;;;;0.10;0.10;;;21.20;99.90;;;;;;5022017;28;20188;-82
2023/08/18 02:45:57;;;;;;;0.10;0.10;;;21.20;99.90;;;;;;5005471;28;20756;-82
2023/08/18 02:48:27;;;;;;;0.10;0.10;;;21.20;99.90;;;;;;5006935;28;20233;-82
2023/08/18 02:51:03;;;;;;;0.10;0.10;;;21.30;99.90;;;;;;5005230;28;20273;-81
2023/08/18 02:53:29;;;;;;;0.10;0.10;;;21.20;99.90;;;;;;5006733;28;20195;-82
2023/08/18 02:55:55;;;;;;;0.10;0.10;;;21.10;99.90;;;;;;5007904;28;20183;-82
2023/08/18 02:58:21;;;;;;;0.10;0.10;;;21.10;99.90;;;;;;5006942;28;20942;-82
2023/08/18 03:00:47;;;;;;;0.10;0.10;;;20.80;99.90;;;;;;5002776;28;20207;-82
2023/08/18 03:03:13;;;;;;;0.10;0.10;;;20.60;99.90;;;;;;5005322;28;20195;-82
2023/08/18 03:05:38;;;;;;;0.10;0.10;;;20.50;99.90;;;;;;5021470;28;20191;-82
2023/08/18 03:08:04;;;;;;;0.10;0.10;;;20.50;99.90;;;;;;5005449;28;20209;-82
2023/08/18 03:10:29;;;;;;;0.10;0.10;;;20.50;99.90;;;;;;5004566;28;20211;-82
2023/08/18 03:12:55;;;;;;;0.10;0.10;;;20.70;99.90;;;;;;5005229;28;20190;-82
2023/08/18 03:15:20;;;;;;;0.10;0.10;;;20.70;99.90;;;;;;5005055;28;20187;-82
2023/08/18 03:17:46;;;;;;;0.10;0.10;;;20.80;99.90;;;;;;5006040;28;20179;-82
2023/08/18 03:20:12;;;;;;;0.10;0.10;;;20.90;99.90;;;;;;5005094;28;20219;-82
2023/08/18 03:22:38;;;;;;;0.10;0.10;;;20.90;99.90;;;;;;5006620;28;20184;-82
2023/08/18 03:25:04;;;;;;;0.10;0.10;;;20.90;99.90;;;;;;5005149;28;20202;-82
2023/08/18 03:27:29;;;;;;;0.10;0.10;;;20.60;99.90;;;;;;5006343;28;20229;-82
2023/08/18 03:29:55;;;;;;;0.10;0.10;;;20.50;99.90;;;;;;5003043;28;20293;-82
2023/08/18 03:32:22;;;;;;;0.10;0.10;;;20.40;99.90;;;;;;5003583;28;20191;-82
2023/08/18 03:34:47;;;;;;;0.10;0.10;;;20.40;99.90;;;;;;5006622;28;20810;-81
2023/08/18 03:37:13;;;;;;;0.10;0.10;;;20.40;99.90;;;;;;5004644;28;20183;-82
2023/08/18 03:39:39;;;;;;;0.10;0.10;;;20.50;99.90;;;;;;5004093;28;20249;-82
2023/08/18 03:42:04;;;;;;;0.10;0.10;;;20.50;99.90;;;;;;5005626;28;20191;-82
2023/08/18 03:44:30;;;;;;;0.10;0.10;;;20.60;99.90;;;;;;5005324;28;20193;-82
2023/08/18 03:46:56;;;;;;;0.10;0.10;;;20.60;99.90;;;;;;5006596;28;20199;-82
2023/08/18 03:49:22;;;;;;;0.10;0.10;;;20.70;99.90;;;;;;5005790;28;20238;-82
2023/08/18 03:51:47;;;;;;;0.10;0.10;;;20.60;99.90;;;;;;5005239;28;20190;-82
2023/08/18 03:54:13;;;;;;;0.10;0.10;;;20.60;99.90;;;;;;5004364;28;20178;-82
2023/08/18 03:56:39;;;;;;;0.10;0.10;;;20.60;99.90;;;;;;5005979;28;20241;-82
2023/08/18 03:59:04;;;;;;;0.10;0.10;;;20.50;99.90;;;;;;5005752;28;20250;-82
2023/08/18 04:01:31;;;;;;;0.10;0.10;;;20.60;99.90;;;;;;5003578;28;20278;-81
2023/08/18 04:03:58;;;;;;;0.10;0.10;;;20.60;99.90;;;;;;5002242;28;20245;-82
2023/08/18 04:06:24;;;;;;;0.10;0.10;;;20.60;99.90;;;;;;5001544;28;20257;-82
2023/08/18 04:09:06;;;;;;;0.10;0.10;;;20.70;99.90;;;;;;5020788;28;20179;-82
2023/08/18 04:11:35;;;;;;;0.20;0.20;;;20.70;99.90;;;;;;5004967;28;20194;-82
2023/08/18 04:14:02;;;;;;;0.10;0.10;;;20.80;99.90;;;;;;5004162;28;20183;-82
2023/08/18 04:16:29;;;;;;;0.10;0.10;;;20.70;99.90;;;;;;5005877;28;20186;-82
2023/08/18 04:18:54;;;;;;;0.10;0.10;;;20.70;99.90;;;;;;5003856;28;20273;-82
2023/08/18 04:21:20;;;;;;;0.10;0.10;;;20.50;99.90;;;;;;5003466;28;20281;-82
2023/08/18 04:23:46;;;;;;;0.10;0.10;;;20.10;99.90;;;;;;5005032;28;20191;-82
2023/08/18 04:26:12;;;;;;;0.10;0.10;;;20.10;99.90;;;;;;5003936;28;20201;-82
2023/08/18 04:28:38;;;;;;;0.10;0.10;;;20.20;99.90;;;;;;5004673;28;20191;-81
2023/08/18 04:31:03;;;;;;;0.10;0.10;;;20.30;99.90;;;;;;5005556;28;20273;-81
2023/08/18 04:33:29;;;;;;;0.10;0.10;;;20.40;99.90;;;;;;5005369;28;20229;-81
2023/08/18 04:35:55;;;;;;;0.10;0.10;;;20.40;99.90;;;;;;5004445;28;20179;-81
2023/08/18 04:38:20;;;;;;;0.10;0.10;;;20.50;99.90;;;;;;5003193;28;20194;-81
2023/08/18 04:40:56;;;;;;;0.10;0.10;;;20.40;99.90;;;;;;5003567;28;20211;-81
2023/08/18 04:43:22;;;;;;;0.10;0.10;;;20.20;99.90;;;;;;5004853;28;20190;-81
2023/08/18 04:45:47;;;;;;;0.10;0.10;;;20.10;99.90;;;;;;5005016;28;20191;-80
2023/08/18 04:48:13;;;;;;;0.10;0.10;;;20.00;99.90;;;;;;5007128;28;20193;-81
2023/08/18 04:50:38;;;;;;;0.10;0.10;;;19.90;99.90;;;;;;5002725;28;20731;-81
2023/08/18 04:53:04;;;;;;;0.10;0.10;;;19.80;99.90;;;;;;5004550;28;20245;-81
2023/08/18 04:55:30;;;;;;;0.10;0.10;;;19.70;99.90;;;;;;5007490;28;20183;-81
2023/08/18 04:57:55;;;;;;;0.10;0.10;;;19.70;99.90;;;;;;5007790;28;20731;-81
2023/08/18 05:00:23;;;;;;;0.10;0.10;;;19.80;99.90;;;;;;5011522;28;20306;-82
2023/08/18 05:02:48;;;;;;;0.10;0.10;;;19.90;99.90;;;;;;5027721;28;20179;-82
2023/08/18 05:05:14;;;;;;;0.10;0.10;;;20.10;99.90;;;;;;5011694;28;20668;-81
2023/08/18 05:07:40;;;;;;;0.10;0.10;;;20.20;99.90;;;;;;5010841;28;20585;-81
2023/08/18 05:10:06;;;;;;;0.10;0.10;;;20.20;99.90;;;;;;5009482;28;20297;-81
2023/08/18 05:12:31;;;;;;;0.10;0.10;;;20.20;99.90;;;;;;5013638;28;20667;-81
2023/08/18 05:14:57;;;;;;;0.10;0.10;;;20.20;99.90;;;;;;5008859;28;20179;-82
2023/08/18 05:17:22;;;;;;;0.10;0.10;;;20.20;99.90;;;;;;5008988;28;20182;-82
2023/08/18 05:19:48;;;;;;;0.10;0.10;;;20.20;99.90;;;;;;5010048;28;20211;-82
2023/08/18 05:22:13;;;;;;;0.10;0.10;;;20.30;99.90;;;;;;5009413;28;20203;-81
2023/08/18 05:24:39;;;;;;;0.10;0.10;;;20.40;99.90;;;;;;5010248;28;20218;-83
2023/08/18 05:27:05;;;;;;;0.10;0.10;;;20.60;99.90;;;;;;5012079;28;20591;-83
2023/08/18 05:29:31;;;;;;;0.10;0.10;;;20.80;99.90;;;;;;5006079;28;20572;-84
2023/08/18 05:31:57;;;;;;;0.10;0.10;;;20.80;99.90;;;;;;5005201;28;20194;-83
2023/08/18 05:34:24;;;;;;;0.10;0.10;;;20.80;99.90;;;;;;5006882;28;20233;-83
2023/08/18 05:36:51;;;;;;;0.10;0.10;;;20.80;99.90;;;;;;5006541;28;20714;-83
2023/08/18 05:39:17;;;;;;;0.10;0.10;;;21.00;99.90;;;;;;5006392;28;20206;-84
2023/08/18 05:41:44;;;;;;;0.10;0.10;;;21.10;99.90;;;;;;5005211;28;20195;-84
2023/08/18 05:44:09;;;;;;;0.10;0.10;;;21.10;99.90;;;;;;5009532;28;20641;-81
2023/08/18 05:46:35;;;;;;;0.10;0.10;;;21.00;99.90;;;;;;5009694;28;20187;-81
2023/08/18 05:49:01;;;;;;;0.10;0.10;;;21.00;99.90;;;;;;5009514;28;20187;-81
2023/08/18 05:51:26;;;;;;;0.10;0.10;;;21.10;99.90;;;;;;5006921;28;20226;-81
2023/08/18 05:53:52;;;;;;;0.10;0.10;;;21.20;99.90;;;;;;5008814;28;20748;-81
2023/08/18 05:56:17;;;;;;;0.10;0.10;;;21.30;99.90;;;;;;5007109;28;20641;-81
2023/08/18 05:58:43;;;;;;;0.10;0.10;;;21.40;99.90;;;;;;5007012;28;20207;-81
2023/08/18 06:01:09;;;;;;;0.10;0.10;;;21.40;99.90;;;;;;5005059;28;20606;-81
2023/08/18 06:03:34;;;;;;;0.10;0.10;;;21.60;99.90;;;;;;5006214;28;20194;-81
2023/08/18 06:06:03;;;;;;;0.10;0.10;;;21.80;99.90;;;;;;5006321;28;20194;-81
2023/08/18 06:08:28;;;;;;;0.10;0.10;;;21.70;99.90;;;;;;5008938;28;20187;-81
2023/08/18 06:10:55;;;;;;;0.10;0.10;;;21.80;99.90;;;;;;5007263;28;20203;-81
2023/08/18 06:13:21;;;;;;;0.10;0.10;;;21.90;99.90;;;;;;5025124;28;20217;-81
2023/08/18 06:15:47;;;;;;;0.10;0.10;;;22.10;99.90;;;;;;5005815;28;20186;-81
2023/08/18 06:18:12;;;;;;;0.10;0.10;;;22.10;99.90;;;;;;5007897;28;20459;-81
2023/08/18 06:20:38;;;;;;;0.10;0.10;;;22.10;99.90;;;;;;5009762;28;20211;-81
2023/08/18 06:23:03;;;;;;;0.10;0.10;;;22.20;99.90;;;;;;5009286;28;20590;-81
2023/08/18 06:25:29;;;;;;;0.30;0.30;;;22.30;99.90;;;;;;5023817;28;20191;-81
2023/08/18 06:27:54;;;;;;;0.10;0.10;;;22.20;99.90;;;;;;5007342;28;20226;-81
2023/08/18 06:30:20;;;;;;;0.10;0.10;;;22.20;99.90;;;;;;5007603;28;20246;-81
2023/08/18 06:32:46;;;;;;;0.10;0.10;;;22.30;99.90;;;;;;5009965;28;20272;-81
2023/08/18 06:35:12;;;;;;;0.10;0.10;;;22.50;99.90;;;;;;5009511;28;20262;-81
2023/08/18 06:37:37;;;;;;;0.10;0.10;;;22.60;99.90;;;;;;5008344;28;20237;-82
2023/08/18 06:40:03;;;;;;;0.10;0.10;;;22.70;99.90;;;;;;5005616;28;20229;-81
2023/08/18 06:42:29;;;;;;;0.17;0.17;;;22.90;99.90;;;;;;5004476;28;20338;-81
2023/08/18 06:44:54;;;;;;;0.10;0.10;;;22.70;99.90;;;;;;5005344;28;20694;-81
2023/08/18 06:47:20;;;;;;;0.10;0.10;;;22.50;99.90;;;;;;5005064;28;20712;-81
2023/08/18 06:49:45;;;;;;;0.10;0.10;;;22.50;99.90;;;;;;5006698;28;20211;-81
2023/08/18 06:52:11;;;;;;;0.10;0.10;;;22.30;99.90;;;;;;5004508;28;20234;-81
2023/08/18 06:54:38;;;;;;;0.10;0.10;;;22.30;99.90;;;;;;5002894;28;20215;-81
2023/08/18 06:57:03;;;;;;;0.10;0.10;;;22.60;99.90;;;;;;5010068;28;20258;-81
2023/08/18 06:59:29;;;;;;;1.60;1.50;;;22.80;99.90;;;;;;5010724;28;20213;-81
2023/08/18 07:01:54;;;;;;;0.10;0.10;;;22.90;99.90;;;;;;5011298;28;20193;-81
2023/08/18 07:04:20;;;;;;;0.10;0.10;;;22.90;99.90;;;;;;5008379;28;20277;-81
2023/08/18 07:06:45;;;;;;;0.10;0.10;;;22.90;99.90;;;;;;5008943;28;20759;-81
2023/08/18 07:09:12;;;;;;;1.03;1.03;;;22.80;99.90;;;;;;5007941;28;20203;-80
2023/08/18 07:11:37;;;;;;;0.10;0.10;;;22.80;99.90;;;;;;5007393;28;20221;-81
2023/08/18 07:14:03;;;;;;;0.10;0.10;;;22.90;99.90;;;;;;5007408;28;20301;-81
2023/08/18 07:16:30;;;;;;;0.10;0.10;;;22.90;99.90;;;;;;5008791;28;20191;-81
2023/08/18 07:18:55;;;;;;;0.10;0.10;;;23.00;99.90;;;;;;5022497;28;20244;-81
2023/08/18 07:21:21;;;;;;;0.10;0.10;;;23.10;99.90;;;;;;5021374;28;20191;-81
2023/08/18 07:23:46;;;;;;;0.10;0.10;;;23.20;99.90;;;;;;5021182;28;20230;-81
2023/08/18 07:26:12;;;;;;;0.10;0.10;;;23.60;99.90;;;;;;5004972;28;20191;-81
2023/08/18 07:28:37;;;;;;;0.10;0.10;;;24.00;99.90;;;;;;5006190;28;20639;-81
2023/08/18 07:31:04;;;;;;;0.10;0.10;;;23.90;99.90;;;;;;5020725;28;20230;-81
2023/08/18 07:33:30;;;;;;;0.10;0.10;;;24.10;99.90;;;;;;5007590;28;20198;-81
2023/08/18 07:35:56;;;;;;;1.23;1.23;;;24.10;99.90;;;;;;5004362;28;20224;-81
2023/08/18 07:38:23;;;;;;;0.10;0.10;;;24.10;99.90;;;;;;5006371;28;20183;-81
2023/08/18 07:40:48;;;;;;;0.10;0.10;;;23.90;99.90;;;;;;5005376;28;20219;-81
2023/08/18 07:43:14;;;;;;;0.10;0.10;;;23.50;99.90;;;;;;5004637;28;21231;-81
2023/08/18 07:45:40;;;;;;;0.10;0.10;;;23.90;99.90;;;;;;5021724;28;20182;-81
2023/08/18 07:48:05;;;;;;;0.10;0.10;;;23.90;99.90;;;;;;5007447;28;20242;-81
2023/08/18 07:50:32;;;;;;;0.10;0.10;;;24.10;99.90;;;;;;5005914;28;20812;-81
2023/08/18 07:52:58;;;;;;;0.10;0.10;;;24.20;99.90;;;;;;5006203;28;20289;-81
2023/08/18 07:55:23;;;;;;;0.10;0.10;;;24.70;99.90;;;;;;5004761;28;20379;-81
2023/08/18 07:57:49;;;;;;;0.10;0.10;;;24.70;99.90;;;;;;5004875;28;20204;-81
2023/08/18 08:00:21;;;;;;;0.10;0.10;;;24.50;99.90;;;;;;5003484;28;20223;-81
2023/08/18 08:02:48;;;;;;;0.10;0.10;;;24.50;99.90;;;;;;5004778;28;20194;-81
2023/08/18 08:05:19;;;;;;;0.10;0.10;;;24.40;99.90;;;;;;5004405;28;20191;-81
2023/08/18 08:07:44;;;;;;;0.10;0.10;;;24.40;99.90;;;;;;5005752;28;20178;-81
2023/08/18 08:10:10;;;;;;;0.10;0.10;;;24.50;99.90;;;;;;5003194;28;20979;-81
2023/08/18 08:12:39;;;;;;;0.10;0.10;;;24.80;99.90;;;;;;5002958;28;20195;-81
2023/08/18 08:15:07;;;;;;;0.13;0.13;;;24.70;99.90;;;;;;5004351;28;20186;-81
2023/08/18 08:17:33;;;;;;;0.10;0.10;;;24.50;99.90;;;;;;5020844;28;20270;-84
2023/08/18 08:20:16;;;;;;;0.40;0.40;;;24.40;99.90;;;;;;5017674;28;20586;-85
2023/08/18 08:22:43;;;;;;;0.10;0.10;;;24.80;99.90;;;;;;5002803;28;20190;-86
2023/08/18 08:25:10;;;;;;;0.10;0.10;;;25.30;99.90;;;;;;5003583;28;20191;-83
2023/08/18 08:27:36;;;;;;;0.10;0.10;;;25.30;99.90;;;;;;5019189;28;20187;-82
2023/08/18 08:30:02;;;;;;;0.10;0.10;;;25.60;99.90;;;;;;5002760;28;20242;-81
2023/08/18 08:32:27;;;;;;;0.10;0.10;;;25.20;99.90;;;;;;5002105;28;20211;-82
2023/08/18 08:34:53;;;;;;;0.10;0.10;;;24.70;99.90;;;;;;5003907;28;20195;-81
2023/08/18 08:37:18;;;;;;;0.10;0.10;;;24.60;99.90;;;;;;5002904;28;20667;-81
2023/08/18 08:39:44;;;;;;;0.10;0.10;;;25.20;99.90;;;;;;5002070;28;20198;-81
2023/08/18 08:42:10;;;;;;;0.10;0.10;;;25.60;99.90;;;;;;5018824;28;20749;-81
2023/08/18 08:44:39;;;;;;;0.10;0.10;;;25.90;99.90;;;;;;5002572;28;20274;-81
2023/08/18 08:47:05;;;;;;;0.10;0.10;;;25.40;99.90;;;;;;5001160;28;20179;-81
2023/08/18 08:49:32;;;;;;;0.10;0.10;;;25.50;99.90;;;;;;5003009;28;20213;-83
2023/08/18 08:52:09;;;;;;;0.10;0.10;;;25.80;99.90;;;;;;5002236;28;20558;-81
2023/08/18 08:54:53;;;;;;;0.10;0.10;;;26.10;99.90;;;;;;5018402;28;20244;-81
2023/08/18 08:57:22;;;;;;;0.10;0.10;;;26.60;99.90;;;;;;5002871;28;20621;-81
2023/08/18 08:59:48;;;;;;;0.10;0.10;;;26.60;99.90;;;;;;5004883;28;20285;-81
2023/08/18 09:02:13;;;;;;;0.10;0.10;;;26.10;99.90;;;;;;5005475;28;20708;-82
2023/08/18 09:04:39;;;;;;;0.10;0.10;;;26.50;99.90;;;;;;5004754;28;20657;-82
2023/08/18 09:07:04;;;;;;;0.10;0.10;;;26.60;99.90;;;;;;5007307;28;20547;-82
2023/08/18 09:09:30;;;;;;;0.10;0.10;;;26.80;99.90;;;;;;4993383;28;20203;-81
2023/08/18 09:12:06;;;;;;;0.10;0.10;;;26.90;99.90;;;;;;5018913;28;20218;-81
2023/08/18 09:14:39;;;;;;;0.10;0.10;;;26.30;99.90;;;;;;5019343;28;20174;-80
2023/08/18 09:17:05;;;;;;;0.10;0.10;;;26.50;99.90;;;;;;5003055;28;20623;-81
2023/08/18 09:19:31;;;;;;;0.10;0.10;;;26.80;99.90;;;;;;5001135;28;20289;-81
2023/08/18 09:21:58;;;;;;;0.10;0.10;;;27.00;99.90;;;;;;5002962;28;20262;-81
2023/08/18 09:24:25;;;;;;;0.10;0.10;;;27.40;99.90;;;;;;5002221;28;20253;-80
2023/08/18 09:26:50;;;;;;;0.10;0.10;;;27.50;99.90;;;;;;5002679;28;20179;-80
2023/08/18 09:29:16;;;;;;;0.10;0.10;;;27.60;99.90;;;;;;5002445;28;20238;-80
2023/08/18 09:31:46;;;;;;;0.10;0.10;;;27.50;99.90;;;;;;5003486;28;20199;-80
2023/08/18 09:34:20;;;;;;;0.10;0.10;;;27.50;99.90;;;;;;4999561;28;20183;-80
2023/08/18 09:36:55;;;;;;;0.10;0.10;;;27.30;99.90;;;;;;5000750;28;20498;-80
2023/08/18 09:39:21;;;;;;;0.10;0.10;;;27.60;99.90;;;;;;5005154;28;20700;-80
2023/08/18 09:41:50;;;;;;;0.10;0.10;;;26.90;99.90;;;;;;5004087;28;20197;-80
2023/08/18 09:44:16;;;;;;;0.10;0.10;;;26.50;99.90;;;;;;5004002;28;20179;-80
2023/08/18 09:46:47;;;;;;;0.10;0.10;;;26.60;99.90;;;;;;5005572;28;21213;-81
2023/08/18 09:49:16;;;;;;;0.10;0.10;;;26.90;99.90;;;;;;5021340;28;20218;-82
2023/08/18 09:51:44;;;;;;;0.10;0.10;;;27.30;99.90;;;;;;4998727;28;20215;-81
2023/08/18 09:54:12;;;;;;;0.10;0.10;;;27.20;99.90;;;;;;5006531;28;20180;-81
2023/08/18 09:56:39;;;;;;;0.10;0.10;;;27.60;99.90;;;;;;5006248;28;20183;-82
2023/08/18 09:59:17;;;;;;;0.30;0.30;;;27.50;99.90;;;;;;5005895;28;20554;-83
2023/08/18 10:01:44;;;;;;;0.10;0.10;;;27.80;99.90;;;;;;5006548;28;20188;-83
2023/08/18 10:04:10;;;;;;;0.10;0.10;;;28.00;99.90;;;;;;5020231;28;20187;-82
2023/08/18 10:06:39;;;;;;;0.10;0.10;;;27.70;99.90;;;;;;5020258;28;20302;-83
2023/08/18 10:09:05;;;;;;;0.10;0.10;;;28.10;99.90;;;;;;5004998;28;20179;-81
2023/08/18 10:11:31;;;;;;;0.10;0.10;;;27.60;99.90;;;;;;5005441;28;20304;-81
2023/08/18 10:13:57;;;;;;;0.10;0.10;;;28.00;99.90;;;;;;5003480;28;20190;-81
2023/08/18 10:16:23;;;;;;;0.10;0.10;;;28.30;99.90;;;;;;5003938;28;20179;-81
2023/08/18 10:18:58;;;;;;;0.10;0.10;;;28.60;99.90;;;;;;5020647;28;20198;-81
2023/08/18 10:21:25;;;;;;;0.10;0.10;;;28.90;99.90;;;;;;5003490;28;20191;-81
2023/08/18 10:23:52;;;;;;;0.10;0.10;;;29.10;99.90;;;;;;5006255;28;20187;-81
2023/08/18 10:26:17;;;;;;;0.10;0.10;;;29.40;99.90;;;;;;5006816;28;20198;-82
2023/08/18 10:28:43;;;;;;;0.10;0.10;;;29.60;99.90;;;;;;5005573;28;20183;-81
2023/08/18 10:31:11;;;;;;;0.10;0.10;;;29.60;99.90;;;;;;5004520;28;21098;-81
2023/08/18 10:33:44;;;;;;;0.10;0.10;;;29.60;99.90;;;;;;5005766;28;20194;-81
2023/08/18 10:36:16;;;;;;;0.10;0.10;;;29.60;99.90;;;;;;5003896;28;20538;-81
2023/08/18 10:38:41;;;;;;;0.10;0.10;;;29.80;99.90;;;;;;5005692;28;20183;-81
2023/08/18 10:41:08;;;;;;;0.10;0.10;;;29.40;99.90;;;;;;5004253;28;20206;-82
2023/08/18 10:43:51;;;;;;;0.10;0.10;;;29.50;99.90;;;;;;5004390;28;20225;-81
2023/08/18 10:46:17;;;;;;;0.10;0.10;;;29.80;99.90;;;;;;5023361;28;20270;-82
2023/08/18 10:48:43;;;;;;;0.10;0.10;;;29.20;99.90;;;;;;5006821;28;20275;-81
2023/08/18 10:51:09;;;;;;;0.10;0.10;;;29.50;99.90;;;;;;5005021;28;20207;-82
2023/08/18 10:53:37;;;;;;;0.10;0.10;;;29.70;99.90;;;;;;5004493;28;20202;-82
2023/08/18 10:56:03;;;;;;;0.10;0.10;;;29.30;99.90;;;;;;5003427;28;20183;-82
2023/08/18 10:58:29;;;;;;;0.10;0.10;;;29.10;99.90;;;;;;5003506;28;20187;-81
2023/08/18 11:00:55;;;;;;;0.10;0.10;;;29.50;99.90;;;;;;5005352;28;20203;-82
2023/08/18 11:03:20;;;;;;;0.10;0.10;;;29.50;99.90;;;;;;5003945;28;20274;-82
2023/08/18 11:05:46;;;;;;;0.10;0.10;;;29.90;99.90;;;;;;5004059;28;20206;-82
2023/08/18 11:08:12;;;;;;;0.10;0.10;;;30.30;99.90;;;;;;4998520;28;20737;-81
2023/08/18 11:10:40;;;;;;;0.10;0.10;;;30.00;99.90;;;;;;5004735;28;20207;-81
2023/08/18 11:13:09;;;;;;;0.10;0.10;;;30.10;99.90;;;;;;5000085;28;20249;-81
2023/08/18 11:15:35;;;;;;;0.10;0.10;;;29.10;99.90;;;;;;5019850;28;20217;-81
2023/08/18 11:18:00;;;;;;;0.10;0.10;;;28.90;99.90;;;;;;5006001;28;20239;-81
2023/08/18 11:20:26;;;;;;;0.10;0.10;;;29.70;99.90;;;;;;5004845;28;20730;-81
2023/08/18 11:22:52;;;;;;;0.10;0.10;;;29.40;99.90;;;;;;5006004;28;20191;-81
2023/08/18 11:25:21;;;;;;;0.10;0.10;;;29.80;99.90;;;;;;5019846;28;20298;-81
2023/08/18 11:27:49;;;;;;;0.10;0.10;;;29.60;99.90;;;;;;5002299;28;20721;-82
2023/08/18 11:30:15;;;;;;;0.10;0.10;;;30.10;99.90;;;;;;5004735;28;20218;-81
2023/08/18 11:32:42;;;;;;;0.10;0.10;;;30.10;99.90;;;;;;4994956;28;21251;-81
2023/08/18 11:35:09;;;;;;;0.10;0.10;;;30.20;99.90;;;;;;5013347;28;20683;-81
2023/08/18 11:37:44;;;;;;;0.10;0.10;;;30.20;99.90;;;;;;5004825;28;20190;-82
2023/08/18 11:40:12;;;;;;;0.10;0.10;;;29.80;99.90;;;;;;5001781;28;20210;-81
2023/08/18 11:42:40;;;;;;;0.10;0.10;;;29.40;99.90;;;;;;5003693;28;20559;-81
2023/08/18 11:45:08;;;;;;;0.10;0.10;;;29.90;99.90;;;;;;5000164;28;20273;-82
2023/08/18 11:47:35;;;;;;;0.10;0.10;;;29.80;99.90;;;;;;5019153;28;20191;-81
2023/08/18 11:50:03;;;;;;;0.10;0.10;;;29.90;99.90;;;;;;5003432;28;20237;-81
2023/08/18 11:52:45;;;;;;;0.10;0.10;;;30.10;99.90;;;;;;5005810;28;20657;-82
2023/08/18 11:55:12;;;;;;;0.10;0.10;;;30.20;99.90;;;;;;5003800;28;20299;-82
2023/08/18 11:57:41;;;;;;;0.10;0.10;;;30.20;99.90;;;;;;5001622;28;20183;-82
2023/08/18 12:00:13;;;;;;;0.10;0.10;;;30.20;99.90;;;;;;5001612;28;20712;-81
2023/08/18 12:02:46;;;;;;;0.10;0.10;;;30.80;99.90;;;;;;5024995;28;20195;-81
2023/08/18 12:05:26;;;;;;;0.10;0.10;;;30.60;99.90;;;;;;5026007;28;20269;-81
2023/08/18 12:07:53;;;;;;;0.10;0.10;;;31.10;99.90;;;;;;5008636;28;20185;-82
2023/08/18 12:10:19;;;;;;;0.10;0.10;;;30.30;99.90;;;;;;5003688;28;20210;-82
2023/08/18 12:12:52;;;;;;;0.10;0.10;;;30.20;99.90;;;;;;5008233;28;20873;-81
2023/08/18 12:15:20;;;;;;;0.10;0.10;;;30.30;99.90;;;;;;5006047;28;20183;-82
2023/08/18 12:17:45;;;;;;;0.10;0.10;;;30.90;99.90;;;;;;5017935;28;20183;-82
2023/08/18 12:20:11;;;;;;;0.10;0.10;;;30.30;99.90;;;;;;5004150;28;20229;-81
2023/08/18 12:22:37;;;;;;;0.10;0.10;;;30.70;99.90;;;;;;5007301;28;20252;-81
2023/08/18 12:25:05;;;;;;;0.10;0.10;;;30.80;99.90;;;;;;5006633;28;20190;-81
2023/08/18 12:27:31;;;;;;;0.10;0.10;;;31.10;99.90;;;;;;5005208;28;20198;-81
2023/08/18 12:29:56;;;;;;;0.10;0.10;;;31.30;99.90;;;;;;5003857;28;20211;-81
2023/08/18 12:32:22;;;;;;;0.10;0.10;;;31.70;99.90;;;;;;5005744;28;20214;-82
2023/08/18 12:34:50;;;;;;;0.10;0.10;;;31.90;99.90;;;;;;5005566;28;20210;-81
2023/08/18 12:37:18;;;;;;;0.10;0.10;;;31.60;99.90;;;;;;5005383;28;20191;-83
2023/08/18 12:39:44;;;;;;;0.10;0.10;;;31.70;99.90;;;;;;5004219;28;20222;-84
2023/08/18 12:42:09;;;;;;;0.10;0.10;;;31.60;99.90;;;;;;5005163;28;20731;-84
2023/08/18 12:44:35;;;;;;;0.10;0.10;;;31.40;99.90;;;;;;5007527;28;20187;-82
2023/08/18 12:47:00;;;;;;;0.10;0.10;;;31.50;99.90;;;;;;5007708;28;20190;-82